sensor_id;sensor_type;location;lat;lon;timestamp;P1;durP1;ratioP1;P2;durP2;ratioP2
33108;SDS011;19481;51.118;6.940;2022-12-13T00:02:24;20.05;;;10.18;;
33108;SDS011;19481;51.118;6.940;2022-12-13T00:07:26;18.05;;;9.52;;
33108;SDS011;19481;51.118;6.940;2022-12-13T00:12:29;19.27;;;10.27;;
33108;SDS011;19481;51.118;6.940;2022-12-13T00:17:31;19.13;;;9.25;;
33108;SDS011;19481;51.118;6.940;2022-12-13T00:22:33;18.60;;;9.02;;
33108;SDS011;19481;51.118;6.940;2022-12-13T00:27:36;19.23;;;9.95;;
33108;SDS011;19481;51.118;6.940;2022-12-13T00:32:38;19.42;;;10.50;;
33108;SDS011;19481;51.118;6.940;2022-12-13T00:37:39;19.48;;;9.63;;
33108;SDS011;19481;51.118;6.940;2022-12-13T00:42:42;22.17;;;10.57;;
33108;SDS011;19481;51.118;6.940;2022-12-13T00:47:44;19.17;;;9.35;;
33108;SDS011;19481;51.118;6.940;2022-12-13T00:52:46;17.60;;;9.50;;
33108;SDS011;19481;51.118;6.940;2022-12-13T00:57:49;15.60;;;8.95;;
33108;SDS011;19481;51.118;6.940;2022-12-13T01:02:51;19.73;;;9.07;;
33108;SDS011;19481;51.118;6.940;2022-12-13T01:07:53;17.45;;;8.98;;
33108;SDS011;19481;51.118;6.940;2022-12-13T01:12:56;17.60;;;9.93;;
33108;SDS011;19481;51.118;6.940;2022-12-13T01:17:58;16.85;;;9.55;;
33108;SDS011;19481;51.118;6.940;2022-12-13T01:22:59;24.67;;;9.40;;
33108;SDS011;19481;51.118;6.940;2022-12-13T01:28:03;23.08;;;9.50;;
33108;SDS011;19481;51.118;6.940;2022-12-13T01:33:04;17.35;;;9.23;;
33108;SDS011;19481;51.118;6.940;2022-12-13T01:38:06;17.02;;;9.32;;
33108;SDS011;19481;51.118;6.940;2022-12-13T01:43:09;19.77;;;10.10;;
33108;SDS011;19481;51.118;6.940;2022-12-13T01:48:13;21.10;;;9.50;;
33108;SDS011;19481;51.118;6.940;2022-12-13T01:53:18;17.42;;;8.75;;
33108;SDS011;19481;51.118;6.940;2022-12-13T01:58:24;19.02;;;9.15;;
33108;SDS011;19481;51.118;6.940;2022-12-13T02:03:26;19.70;;;8.60;;
33108;SDS011;19481;51.118;6.940;2022-12-13T02:08:28;16.75;;;9.05;;
33108;SDS011;19481;51.118;6.940;2022-12-13T02:13:31;18.52;;;9.35;;
33108;SDS011;19481;51.118;6.940;2022-12-13T02:18:37;16.60;;;9.00;;
33108;SDS011;19481;51.118;6.940;2022-12-13T02:23:59;16.60;;;8.75;;
33108;SDS011;19481;51.118;6.940;2022-12-13T02:35:01;17.35;;;9.23;;
33108;SDS011;19481;51.118;6.940;2022-12-13T02:40:08;15.90;;;8.90;;
33108;SDS011;19481;51.118;6.940;2022-12-13T02:45:15;15.70;;;9.13;;
33108;SDS011;19481;51.118;6.940;2022-12-13T02:50:22;18.85;;;9.00;;
33108;SDS011;19481;51.118;6.940;2022-12-13T02:55:26;20.13;;;9.88;;
33108;SDS011;19481;51.118;6.940;2022-12-13T03:00:29;19.60;;;8.80;;
33108;SDS011;19481;51.118;6.940;2022-12-13T03:05:44;18.42;;;8.52;;
33108;SDS011;19481;51.118;6.940;2022-12-13T03:11:09;22.80;;;9.77;;
33108;SDS011;19481;51.118;6.940;2022-12-13T03:16:17;15.32;;;8.55;;
33108;SDS011;19481;51.118;6.940;2022-12-13T03:21:25;13.80;;;8.80;;
33108;SDS011;19481;51.118;6.940;2022-12-13T03:26:27;15.13;;;9.32;;
33108;SDS011;19481;51.118;6.940;2022-12-13T03:31:29;18.15;;;8.82;;
33108;SDS011;19481;51.118;6.940;2022-12-13T03:36:32;15.00;;;8.60;;
33108;SDS011;19481;51.118;6.940;2022-12-13T03:41:33;16.23;;;8.40;;
33108;SDS011;19481;51.118;6.940;2022-12-13T03:46:35;14.88;;;9.18;;
33108;SDS011;19481;51.118;6.940;2022-12-13T03:51:38;17.25;;;8.93;;
33108;SDS011;19481;51.118;6.940;2022-12-13T03:56:39;16.40;;;8.30;;
33108;SDS011;19481;51.118;6.940;2022-12-13T04:01:41;18.98;;;8.70;;
33108;SDS011;19481;51.118;6.940;2022-12-13T04:06:44;18.27;;;8.83;;
33108;SDS011;19481;51.118;6.940;2022-12-13T04:11:45;20.52;;;9.80;;
33108;SDS011;19481;51.118;6.940;2022-12-13T04:17:04;17.30;;;9.40;;
33108;SDS011;19481;51.118;6.940;2022-12-13T04:22:07;16.80;;;8.73;;
33108;SDS011;19481;51.118;6.940;2022-12-13T04:27:09;22.77;;;10.20;;
33108;SDS011;19481;51.118;6.940;2022-12-13T04:32:10;18.55;;;9.52;;
33108;SDS011;19481;51.118;6.940;2022-12-13T04:37:13;18.67;;;9.53;;
33108;SDS011;19481;51.118;6.940;2022-12-13T04:42:15;17.20;;;8.20;;
33108;SDS011;19481;51.118;6.940;2022-12-13T04:47:17;22.20;;;9.18;;
33108;SDS011;19481;51.118;6.940;2022-12-13T04:52:20;18.42;;;9.65;;
33108;SDS011;19481;51.118;6.940;2022-12-13T04:57:21;19.40;;;9.87;;
33108;SDS011;19481;51.118;6.940;2022-12-13T05:02:23;18.40;;;9.50;;
33108;SDS011;19481;51.118;6.940;2022-12-13T05:07:26;21.33;;;9.60;;
33108;SDS011;19481;51.118;6.940;2022-12-13T05:12:28;21.03;;;10.43;;
33108;SDS011;19481;51.118;6.940;2022-12-13T05:17:30;21.33;;;9.87;;
33108;SDS011;19481;51.118;6.940;2022-12-13T05:22:33;23.37;;;9.90;;
33108;SDS011;19481;51.118;6.940;2022-12-13T05:27:36;22.20;;;9.73;;
33108;SDS011;19481;51.118;6.940;2022-12-13T05:32:38;22.38;;;10.43;;
33108;SDS011;19481;51.118;6.940;2022-12-13T05:37:41;25.03;;;10.37;;
33108;SDS011;19481;51.118;6.940;2022-12-13T05:42:42;20.70;;;9.63;;
33108;SDS011;19481;51.118;6.940;2022-12-13T05:47:44;21.43;;;10.63;;
33108;SDS011;19481;51.118;6.940;2022-12-13T05:52:47;23.80;;;11.13;;
33108;SDS011;19481;51.118;6.940;2022-12-13T05:57:49;23.13;;;10.17;;
33108;SDS011;19481;51.118;6.940;2022-12-13T06:02:50;24.40;;;10.07;;
33108;SDS011;19481;51.118;6.940;2022-12-13T06:07:54;26.77;;;11.23;;
33108;SDS011;19481;51.118;6.940;2022-12-13T06:12:56;26.27;;;11.67;;
33108;SDS011;19481;51.118;6.940;2022-12-13T06:17:59;20.90;;;9.90;;
33108;SDS011;19481;51.118;6.940;2022-12-13T06:23:02;26.73;;;11.93;;
33108;SDS011;19481;51.118;6.940;2022-12-13T06:28:04;24.43;;;10.77;;
33108;SDS011;19481;51.118;6.940;2022-12-13T06:33:05;24.73;;;11.27;;
33108;SDS011;19481;51.118;6.940;2022-12-13T06:38:08;22.50;;;10.53;;
33108;SDS011;19481;51.118;6.940;2022-12-13T06:43:10;24.02;;;10.98;;
33108;SDS011;19481;51.118;6.940;2022-12-13T06:48:11;24.73;;;11.13;;
33108;SDS011;19481;51.118;6.940;2022-12-13T06:53:14;27.43;;;11.53;;
33108;SDS011;19481;51.118;6.940;2022-12-13T06:58:16;24.98;;;10.40;;
33108;SDS011;19481;51.118;6.940;2022-12-13T07:03:17;18.37;;;10.07;;
33108;SDS011;19481;51.118;6.940;2022-12-13T07:08:20;23.13;;;10.35;;
33108;SDS011;19481;51.118;6.940;2022-12-13T07:13:22;22.40;;;9.57;;
33108;SDS011;19481;51.118;6.940;2022-12-13T07:18:24;30.57;;;11.33;;
33108;SDS011;19481;51.118;6.940;2022-12-13T07:23:27;25.93;;;10.60;;
33108;SDS011;19481;51.118;6.940;2022-12-13T07:28:30;23.13;;;10.10;;
33108;SDS011;19481;51.118;6.940;2022-12-13T07:33:33;26.60;;;11.43;;
33108;SDS011;19481;51.118;6.940;2022-12-13T07:38:36;20.00;;;10.77;;
33108;SDS011;19481;51.118;6.940;2022-12-13T07:43:38;25.83;;;10.33;;
33108;SDS011;19481;51.118;6.940;2022-12-13T07:48:40;25.30;;;10.75;;
33108;SDS011;19481;51.118;6.940;2022-12-13T07:53:43;18.60;;;9.87;;
33108;SDS011;19481;51.118;6.940;2022-12-13T07:58:45;20.90;;;10.33;;
33108;SDS011;19481;51.118;6.940;2022-12-13T08:03:46;19.00;;;9.83;;
33108;SDS011;19481;51.118;6.940;2022-12-13T08:08:53;15.87;;;9.20;;
33108;SDS011;19481;51.118;6.940;2022-12-13T08:13:55;21.20;;;10.15;;
33108;SDS011;19481;51.118;6.940;2022-12-13T08:18:57;17.47;;;8.47;;
33108;SDS011;19481;51.118;6.940;2022-12-13T08:24:00;15.60;;;8.37;;
33108;SDS011;19481;51.118;6.940;2022-12-13T08:29:02;15.83;;;8.90;;
33108;SDS011;19481;51.118;6.940;2022-12-13T08:34:04;19.30;;;9.13;;
33108;SDS011;19481;51.118;6.940;2022-12-13T08:39:07;24.93;;;10.33;;
33108;SDS011;19481;51.118;6.940;2022-12-13T08:44:09;17.57;;;8.93;;
33108;SDS011;19481;51.118;6.940;2022-12-13T08:49:11;21.48;;;9.30;;
33108;SDS011;19481;51.118;6.940;2022-12-13T08:54:14;17.45;;;9.27;;
33108;SDS011;19481;51.118;6.940;2022-12-13T08:59:16;17.83;;;8.50;;
33108;SDS011;19481;51.118;6.940;2022-12-13T09:04:18;18.20;;;9.02;;
33108;SDS011;19481;51.118;6.940;2022-12-13T09:09:21;19.25;;;8.80;;
33108;SDS011;19481;51.118;6.940;2022-12-13T09:14:23;11.98;;;7.57;;
33108;SDS011;19481;51.118;6.940;2022-12-13T09:19:24;20.70;;;9.25;;
33108;SDS011;19481;51.118;6.940;2022-12-13T09:24:27;17.13;;;8.68;;
33108;SDS011;19481;51.118;6.940;2022-12-13T09:29:29;18.95;;;9.27;;
33108;SDS011;19481;51.118;6.940;2022-12-13T09:34:32;15.93;;;7.88;;
33108;SDS011;19481;51.118;6.940;2022-12-13T09:39:35;18.83;;;9.07;;
33108;SDS011;19481;51.118;6.940;2022-12-13T09:44:37;17.92;;;8.95;;
33108;SDS011;19481;51.118;6.940;2022-12-13T09:49:41;19.48;;;8.50;;
33108;SDS011;19481;51.118;6.940;2022-12-13T09:54:52;16.52;;;7.95;;
33108;SDS011;19481;51.118;6.940;2022-12-13T09:59:55;16.60;;;9.05;;
33108;SDS011;19481;51.118;6.940;2022-12-13T10:04:58;15.25;;;8.10;;
33108;SDS011;19481;51.118;6.940;2022-12-13T10:10:16;20.80;;;9.27;;
33108;SDS011;19481;51.118;6.940;2022-12-13T10:15:18;12.52;;;7.68;;
33108;SDS011;19481;51.118;6.940;2022-12-13T10:20:21;15.63;;;7.63;;
33108;SDS011;19481;51.118;6.940;2022-12-13T10:25:44;17.48;;;8.40;;
33108;SDS011;19481;51.118;6.940;2022-12-13T10:30:48;15.80;;;8.27;;
33108;SDS011;19481;51.118;6.940;2022-12-13T10:36:01;15.65;;;7.70;;
33108;SDS011;19481;51.118;6.940;2022-12-13T10:41:25;14.88;;;7.30;;
33108;SDS011;19481;51.118;6.940;2022-12-13T10:46:35;15.50;;;8.38;;
33108;SDS011;19481;51.118;6.940;2022-12-13T10:51:37;14.60;;;7.65;;
33108;SDS011;19481;51.118;6.940;2022-12-13T10:56:43;13.23;;;7.55;;
33108;SDS011;19481;51.118;6.940;2022-12-13T11:01:46;14.40;;;6.88;;
33108;SDS011;19481;51.118;6.940;2022-12-13T11:06:48;13.68;;;7.40;;
33108;SDS011;19481;51.118;6.940;2022-12-13T11:11:51;14.07;;;7.40;;
33108;SDS011;19481;51.118;6.940;2022-12-13T11:16:56;12.88;;;6.93;;
33108;SDS011;19481;51.118;6.940;2022-12-13T11:21:59;12.02;;;6.22;;
33108;SDS011;19481;51.118;6.940;2022-12-13T11:27:04;11.82;;;6.93;;
33108;SDS011;19481;51.118;6.940;2022-12-13T11:32:22;14.13;;;7.68;;
33108;SDS011;19481;51.118;6.940;2022-12-13T11:37:37;14.73;;;7.30;;
33108;SDS011;19481;51.118;6.940;2022-12-13T11:42:51;13.75;;;7.13;;
33108;SDS011;19481;51.118;6.940;2022-12-13T11:48:00;13.68;;;6.68;;
33108;SDS011;19481;51.118;6.940;2022-12-13T11:58:32;9.65;;;6.38;;
33108;SDS011;19481;51.118;6.940;2022-12-13T12:03:43;12.27;;;6.43;;
33108;SDS011;19481;51.118;6.940;2022-12-13T12:08:52;12.60;;;6.68;;
33108;SDS011;19481;51.118;6.940;2022-12-13T12:13:59;13.75;;;6.65;;
33108;SDS011;19481;51.118;6.940;2022-12-13T12:19:08;11.50;;;6.68;;
33108;SDS011;19481;51.118;6.940;2022-12-13T12:24:16;12.60;;;7.13;;
33108;SDS011;19481;51.118;6.940;2022-12-13T12:34:53;13.02;;;6.90;;
33108;SDS011;19481;51.118;6.940;2022-12-13T12:40:06;6.03;;;4.05;;
33108;SDS011;19481;51.118;6.940;2022-12-13T12:45:39;10.93;;;5.57;;
33108;SDS011;19481;51.118;6.940;2022-12-13T12:50:52;13.68;;;7.45;;
33108;SDS011;19481;51.118;6.940;2022-12-13T12:55:59;10.88;;;6.68;;
33108;SDS011;19481;51.118;6.940;2022-12-13T13:01:15;12.68;;;6.20;;
33108;SDS011;19481;51.118;6.940;2022-12-13T13:06:26;11.98;;;6.07;;
33108;SDS011;19481;51.118;6.940;2022-12-13T13:11:32;14.35;;;6.10;;
33108;SDS011;19481;51.118;6.940;2022-12-13T13:16:38;13.35;;;6.45;;
33108;SDS011;19481;51.118;6.940;2022-12-13T13:21:44;8.98;;;5.50;;
33108;SDS011;19481;51.118;6.940;2022-12-13T13:26:47;12.80;;;5.88;;
33108;SDS011;19481;51.118;6.940;2022-12-13T13:31:56;9.98;;;5.53;;
33108;SDS011;19481;51.118;6.940;2022-12-13T13:36:59;9.63;;;5.38;;
33108;SDS011;19481;51.118;6.940;2022-12-13T13:42:14;10.10;;;5.30;;
33108;SDS011;19481;51.118;6.940;2022-12-13T13:47:29;10.40;;;5.28;;
33108;SDS011;19481;51.118;6.940;2022-12-13T13:52:36;9.65;;;5.15;;
33108;SDS011;19481;51.118;6.940;2022-12-13T14:03:41;11.52;;;5.43;;
33108;SDS011;19481;51.118;6.940;2022-12-13T14:15:11;11.43;;;5.82;;
33108;SDS011;19481;51.118;6.940;2022-12-13T14:20:45;8.82;;;5.15;;
33108;SDS011;19481;51.118;6.940;2022-12-13T14:26:08;8.52;;;4.97;;
33108;SDS011;19481;51.118;6.940;2022-12-13T14:31:17;13.68;;;5.50;;
33108;SDS011;19481;51.118;6.940;2022-12-13T14:36:27;14.82;;;6.13;;
33108;SDS011;19481;51.118;6.940;2022-12-13T14:41:31;9.23;;;5.45;;
33108;SDS011;19481;51.118;6.940;2022-12-13T14:46:33;10.75;;;6.30;;
33108;SDS011;19481;51.118;6.940;2022-12-13T14:51:36;11.48;;;6.00;;
33108;SDS011;19481;51.118;6.940;2022-12-13T14:56:52;11.25;;;5.70;;
33108;SDS011;19481;51.118;6.940;2022-12-13T15:01:55;8.88;;;5.68;;
33108;SDS011;19481;51.118;6.940;2022-12-13T15:07:04;14.30;;;6.07;;
33108;SDS011;19481;51.118;6.940;2022-12-13T15:12:14;9.50;;;5.60;;
33108;SDS011;19481;51.118;6.940;2022-12-13T15:17:29;10.45;;;6.03;;
33108;SDS011;19481;51.118;6.940;2022-12-13T15:22:33;9.05;;;5.30;;
33108;SDS011;19481;51.118;6.940;2022-12-13T15:27:35;11.65;;;5.97;;
33108;SDS011;19481;51.118;6.940;2022-12-13T15:32:36;10.57;;;5.63;;
33108;SDS011;19481;51.118;6.940;2022-12-13T15:38:09;9.95;;;6.05;;
33108;SDS011;19481;51.118;6.940;2022-12-13T15:43:14;12.82;;;5.82;;
33108;SDS011;19481;51.118;6.940;2022-12-13T15:48:23;12.43;;;5.80;;
33108;SDS011;19481;51.118;6.940;2022-12-13T15:53:27;11.90;;;5.65;;
33108;SDS011;19481;51.118;6.940;2022-12-13T15:58:30;11.07;;;6.13;;
33108;SDS011;19481;51.118;6.940;2022-12-13T16:03:37;12.13;;;5.88;;
33108;SDS011;19481;51.118;6.940;2022-12-13T16:08:41;11.57;;;5.93;;
33108;SDS011;19481;51.118;6.940;2022-12-13T16:13:48;10.88;;;6.10;;
33108;SDS011;19481;51.118;6.940;2022-12-13T16:18:52;10.23;;;5.53;;
33108;SDS011;19481;51.118;6.940;2022-12-13T16:23:54;9.50;;;5.00;;
33108;SDS011;19481;51.118;6.940;2022-12-13T16:28:56;13.30;;;5.38;;
33108;SDS011;19481;51.118;6.940;2022-12-13T16:34:00;9.63;;;5.88;;
33108;SDS011;19481;51.118;6.940;2022-12-13T16:39:02;9.68;;;5.47;;
33108;SDS011;19481;51.118;6.940;2022-12-13T16:44:05;8.90;;;5.15;;
33108;SDS011;19481;51.118;6.940;2022-12-13T16:49:16;11.60;;;5.45;;
33108;SDS011;19481;51.118;6.940;2022-12-13T16:54:20;12.73;;;5.32;;
33108;SDS011;19481;51.118;6.940;2022-12-13T16:59:24;7.63;;;5.05;;
33108;SDS011;19481;51.118;6.940;2022-12-13T17:04:28;10.80;;;5.72;;
33108;SDS011;19481;51.118;6.940;2022-12-13T17:09:32;11.00;;;5.75;;
33108;SDS011;19481;51.118;6.940;2022-12-13T17:14:33;8.57;;;5.25;;
33108;SDS011;19481;51.118;6.940;2022-12-13T17:19:37;10.85;;;5.45;;
33108;SDS011;19481;51.118;6.940;2022-12-13T17:24:38;9.75;;;5.47;;
33108;SDS011;19481;51.118;6.940;2022-12-13T17:29:40;9.18;;;5.40;;
33108;SDS011;19481;51.118;6.940;2022-12-13T17:34:43;8.93;;;5.40;;
33108;SDS011;19481;51.118;6.940;2022-12-13T17:39:45;8.85;;;5.30;;
33108;SDS011;19481;51.118;6.940;2022-12-13T17:44:46;11.45;;;6.05;;
33108;SDS011;19481;51.118;6.940;2022-12-13T17:49:49;7.45;;;4.97;;
33108;SDS011;19481;51.118;6.940;2022-12-13T17:54:51;9.07;;;4.55;;
33108;SDS011;19481;51.118;6.940;2022-12-13T17:59:53;8.60;;;4.88;;
33108;SDS011;19481;51.118;6.940;2022-12-13T18:04:56;8.82;;;5.35;;
33108;SDS011;19481;51.118;6.940;2022-12-13T18:09:57;8.93;;;5.22;;
33108;SDS011;19481;51.118;6.940;2022-12-13T18:14:59;10.73;;;5.03;;
33108;SDS011;19481;51.118;6.940;2022-12-13T18:20:02;10.65;;;5.13;;
33108;SDS011;19481;51.118;6.940;2022-12-13T18:25:04;8.13;;;5.30;;
33108;SDS011;19481;51.118;6.940;2022-12-13T18:30:08;12.27;;;5.57;;
33108;SDS011;19481;51.118;6.940;2022-12-13T18:35:12;9.60;;;5.15;;
33108;SDS011;19481;51.118;6.940;2022-12-13T18:40:13;10.10;;;4.45;;
33108;SDS011;19481;51.118;6.940;2022-12-13T18:45:15;9.25;;;5.25;;
33108;SDS011;19481;51.118;6.940;2022-12-13T18:50:20;9.75;;;4.85;;
33108;SDS011;19481;51.118;6.940;2022-12-13T18:55:21;9.63;;;5.40;;
33108;SDS011;19481;51.118;6.940;2022-12-13T19:00:23;8.68;;;5.03;;
33108;SDS011;19481;51.118;6.940;2022-12-13T19:05:27;5.57;;;4.82;;
33108;SDS011;19481;51.118;6.940;2022-12-13T19:10:28;11.02;;;5.63;;
33108;SDS011;19481;51.118;6.940;2022-12-13T19:15:30;8.40;;;4.30;;
33108;SDS011;19481;51.118;6.940;2022-12-13T19:20:33;9.35;;;5.30;;
33108;SDS011;19481;51.118;6.940;2022-12-13T19:25:35;10.10;;;5.85;;
33108;SDS011;19481;51.118;6.940;2022-12-13T19:30:37;9.35;;;5.25;;
33108;SDS011;19481;51.118;6.940;2022-12-13T19:35:40;22.80;;;10.10;;
33108;SDS011;19481;51.118;6.940;2022-12-13T19:40:42;11.35;;;5.32;;
33108;SDS011;19481;51.118;6.940;2022-12-13T19:45:44;7.65;;;4.35;;
33108;SDS011;19481;51.118;6.940;2022-12-13T19:50:47;6.75;;;4.18;;
33108;SDS011;19481;51.118;6.940;2022-12-13T19:55:48;8.32;;;4.93;;
33108;SDS011;19481;51.118;6.940;2022-12-13T20:00:50;6.55;;;4.20;;
33108;SDS011;19481;51.118;6.940;2022-12-13T20:05:56;6.30;;;3.78;;
33108;SDS011;19481;51.118;6.940;2022-12-13T20:10:59;12.30;;;4.63;;
33108;SDS011;19481;51.118;6.940;2022-12-13T20:16:02;7.90;;;4.80;;
33108;SDS011;19481;51.118;6.940;2022-12-13T20:21:07;7.00;;;4.50;;
33108;SDS011;19481;51.118;6.940;2022-12-13T20:26:11;10.98;;;4.78;;
33108;SDS011;19481;51.118;6.940;2022-12-13T20:31:15;8.63;;;4.53;;
33108;SDS011;19481;51.118;6.940;2022-12-13T20:36:20;8.55;;;4.15;;
33108;SDS011;19481;51.118;6.940;2022-12-13T20:41:22;6.25;;;4.38;;
33108;SDS011;19481;51.118;6.940;2022-12-13T20:46:25;10.75;;;4.82;;
33108;SDS011;19481;51.118;6.940;2022-12-13T20:51:30;9.95;;;4.88;;
33108;SDS011;19481;51.118;6.940;2022-12-13T20:56:33;9.30;;;4.82;;
33108;SDS011;19481;51.118;6.940;2022-12-13T21:01:36;6.32;;;4.50;;
33108;SDS011;19481;51.118;6.940;2022-12-13T21:06:41;11.02;;;4.95;;
33108;SDS011;19481;51.118;6.940;2022-12-13T21:11:44;7.72;;;4.38;;
33108;SDS011;19481;51.118;6.940;2022-12-13T21:16:48;7.80;;;4.32;;
33108;SDS011;19481;51.118;6.940;2022-12-13T21:21:52;7.57;;;4.25;;
33108;SDS011;19481;51.118;6.940;2022-12-13T21:26:54;9.35;;;4.60;;
33108;SDS011;19481;51.118;6.940;2022-12-13T21:31:56;10.27;;;4.85;;
33108;SDS011;19481;51.118;6.940;2022-12-13T21:36:59;8.30;;;4.55;;
33108;SDS011;19481;51.118;6.940;2022-12-13T21:42:01;5.38;;;3.95;;
33108;SDS011;19481;51.118;6.940;2022-12-13T21:47:02;6.03;;;4.32;;
33108;SDS011;19481;51.118;6.940;2022-12-13T21:52:05;6.18;;;4.20;;
33108;SDS011;19481;51.118;6.940;2022-12-13T21:57:07;8.07;;;4.13;;
33108;SDS011;19481;51.118;6.940;2022-12-13T22:02:27;6.38;;;3.80;;
33108;SDS011;19481;51.118;6.940;2022-12-13T22:07:30;6.15;;;3.72;;
33108;SDS011;19481;51.118;6.940;2022-12-13T22:12:34;7.53;;;4.13;;
33108;SDS011;19481;51.118;6.940;2022-12-13T22:17:37;6.32;;;4.00;;
33108;SDS011;19481;51.118;6.940;2022-12-13T22:22:41;6.72;;;3.75;;
33108;SDS011;19481;51.118;6.940;2022-12-13T22:27:44;5.25;;;3.17;;
33108;SDS011;19481;51.118;6.940;2022-12-13T22:32:45;6.03;;;3.63;;
33108;SDS011;19481;51.118;6.940;2022-12-13T22:37:48;5.43;;;3.75;;
33108;SDS011;19481;51.118;6.940;2022-12-13T22:42:50;10.45;;;3.83;;
33108;SDS011;19481;51.118;6.940;2022-12-13T22:47:52;5.80;;;3.45;;
33108;SDS011;19481;51.118;6.940;2022-12-13T22:52:55;3.85;;;3.08;;
33108;SDS011;19481;51.118;6.940;2022-12-13T22:57:56;8.30;;;3.53;;
33108;SDS011;19481;51.118;6.940;2022-12-13T23:02:58;4.75;;;3.20;;
33108;SDS011;19481;51.118;6.940;2022-12-13T23:08:01;6.32;;;3.47;;
33108;SDS011;19481;51.118;6.940;2022-12-13T23:13:02;6.75;;;3.60;;
33108;SDS011;19481;51.118;6.940;2022-12-13T23:18:04;5.43;;;3.72;;
33108;SDS011;19481;51.118;6.940;2022-12-13T23:23:07;7.65;;;3.78;;
33108;SDS011;19481;51.118;6.940;2022-12-13T23:28:09;5.55;;;3.83;;
33108;SDS011;19481;51.118;6.940;2022-12-13T23:33:10;5.55;;;3.78;;
33108;SDS011;19481;51.118;6.940;2022-12-13T23:38:13;5.85;;;3.88;;
33108;SDS011;19481;51.118;6.940;2022-12-13T23:43:15;4.90;;;2.85;;
33108;SDS011;19481;51.118;6.940;2022-12-13T23:48:16;8.98;;;3.53;;
33108;SDS011;19481;51.118;6.940;2022-12-13T23:53:20;4.53;;;3.42;;
33108;SDS011;19481;51.118;6.940;2022-12-13T23:58:23;6.68;;;3.40;;
